createdAt,value
2022-09-21T08:11:14.533Z,28.22
2022-09-21T08:12:14.511Z,28.41
2022-09-21T08:13:14.527Z,28.67
2022-09-21T08:14:14.537Z,28.91
2022-09-21T08:15:37.007Z,29.13
2022-09-21T08:18:40.420Z,29.69
2022-09-21T08:29:30.824Z,30.77
2022-09-21T08:30:30.828Z,30.88
2022-09-21T08:31:30.883Z,30.90
2022-09-21T08:32:49.788Z,30.92
2022-09-21T08:33:30.865Z,31.15
2022-09-21T08:34:30.880Z,31.21
2022-09-21T08:36:13.460Z,31.36
2022-09-21T08:37:13.462Z,31.51
2022-09-21T08:38:13.487Z,31.44
2022-09-21T08:39:16.932Z,31.64
2022-09-21T08:40:13.563Z,31.80
2022-09-21T08:41:13.535Z,31.99
2022-09-21T08:42:13.546Z,32.07
2022-09-21T08:43:13.568Z,31.85
2022-09-21T08:44:13.582Z,31.85
2022-09-21T08:45:13.619Z,31.85
2022-09-21T08:47:11.197Z,31.96
2022-09-21T08:48:11.224Z,31.64
2022-09-21T08:49:11.239Z,31.71
2022-09-21T08:50:11.260Z,31.73
2022-09-21T08:51:11.268Z,31.73
2022-09-21T08:52:13.865Z,31.69
2022-09-21T14:45:33.230Z,21.52
2022-09-21T14:46:33.336Z,21.51
2022-09-21T14:47:33.252Z,21.46
2022-09-21T14:48:33.274Z,21.35
2022-09-21T14:50:15.906Z,21.37
2022-09-21T14:51:15.857Z,21.20
2022-09-21T15:03:18.413Z,20.99
2022-09-21T15:04:18.574Z,20.96
2022-09-21T15:05:18.424Z,20.82
2022-09-21T15:06:18.433Z,20.82
2022-09-21T16:18:37.126Z,19.12
2022-09-21T16:21:00.163Z,19.07
2022-09-21T16:21:54.737Z,19.09
2022-09-21T16:22:54.767Z,19.00
2022-09-21T16:24:42.316Z,18.99
2022-09-21T16:25:42.333Z,18.99
2022-09-21T16:27:24.890Z,18.92
2022-09-21T16:31:10.844Z,18.88
2022-09-21T16:32:10.817Z,18.83
2022-09-21T16:33:10.819Z,18.78
2022-09-21T16:34:10.860Z,18.75
2022-09-21T16:37:36.712Z,18.62
2022-09-21T16:41:12.944Z,18.56
2022-09-21T16:42:12.615Z,18.55
2022-09-21T16:43:12.634Z,18.55
2022-09-21T16:44:12.630Z,18.55
2022-09-21T16:45:12.642Z,18.38
2022-09-21T16:46:12.719Z,18.53
2022-09-21T16:47:12.663Z,18.45
2022-09-21T16:48:12.674Z,18.44
2022-09-21T16:49:12.684Z,18.37
2022-09-21T16:50:12.718Z,18.45
2022-09-21T16:51:12.711Z,18.34
2022-09-21T16:52:12.719Z,18.28
2022-09-21T16:53:12.727Z,18.26
2022-09-21T16:54:12.741Z,18.26
2022-09-21T16:55:12.756Z,18.26
2022-09-21T16:56:12.761Z,18.25
2022-09-21T16:57:12.777Z,18.25
2022-09-21T16:58:12.790Z,18.11
2022-09-21T16:59:12.793Z,18.19
2022-09-21T17:00:13.831Z,18.15
2022-09-21T17:01:12.956Z,18.08
2022-09-21T17:02:12.923Z,18.10
2022-09-21T17:03:12.835Z,18.03
2022-09-21T17:04:12.846Z,18.10
2022-09-21T17:05:12.857Z,18.04
2022-09-21T17:06:12.895Z,17.98
2022-09-21T17:07:12.878Z,17.98
2022-09-21T17:09:29.192Z,17.92
2022-09-21T17:10:25.506Z,17.82
2022-09-21T17:11:25.521Z,17.87
2022-09-21T17:12:25.538Z,17.82
2022-09-21T17:13:25.544Z,17.85
2022-09-21T17:14:25.548Z,17.79
2022-09-21T17:15:25.558Z,17.74
2022-09-21T17:16:25.594Z,17.76
2022-09-21T17:17:25.585Z,17.74
2022-09-21T17:18:25.624Z,17.67
2022-09-21T17:19:25.613Z,17.56
2022-09-21T17:20:25.616Z,17.64
2022-09-21T17:21:25.638Z,17.59
2022-09-21T17:22:25.629Z,17.44
2022-09-21T17:23:25.644Z,17.51
2022-09-21T17:24:46.332Z,17.45
2022-09-21T17:25:25.670Z,17.34
2022-09-21T17:26:25.678Z,17.30
2022-09-21T17:27:25.678Z,17.36
2022-09-21T17:28:25.698Z,17.27
2022-09-21T17:29:25.706Z,17.24
2022-09-21T17:30:25.710Z,17.20
2022-09-21T17:31:25.777Z,17.19
2022-09-21T17:32:25.737Z,17.19
2022-09-21T17:33:25.747Z,17.11
2022-09-21T17:34:25.759Z,17.09
2022-09-21T17:35:25.766Z,17.04
2022-09-21T17:36:25.778Z,17.08
2022-09-21T17:37:25.800Z,17.05
2022-09-21T17:38:25.792Z,17.01
2022-09-21T17:39:25.810Z,16.93
2022-09-21T17:40:25.874Z,16.87
2022-09-21T17:41:25.829Z,16.76
2022-09-21T17:42:26.127Z,16.81
2022-09-21T17:43:25.849Z,16.89
2022-09-21T17:44:25.858Z,16.83
2022-09-21T17:45:25.860Z,16.79
2022-09-21T17:46:25.949Z,16.76
2022-09-21T17:47:25.887Z,16.75
2022-09-21T19:31:08.914Z,14.89
2022-09-21T19:32:08.798Z,14.88
2022-09-21T19:33:08.811Z,14.86
2022-09-21T19:34:08.819Z,14.92
2022-09-21T19:35:08.820Z,14.88
2022-09-21T21:01:48.594Z,13.44
2022-09-21T21:02:48.527Z,13.52
2022-09-21T21:03:48.640Z,13.57
2022-09-21T21:04:48.547Z,13.52
2022-09-21T21:05:48.551Z,13.50
2022-09-21T21:06:48.550Z,13.52
2022-09-21T21:07:48.562Z,13.50
2022-09-21T21:08:48.570Z,13.50
2022-09-21T21:26:15.927Z,13.31
2022-09-21T21:27:15.918Z,13.33
2022-09-21T21:28:15.924Z,13.22
2022-09-21T21:29:15.923Z,13.30
2022-09-21T21:30:15.930Z,13.22
2022-09-21T21:31:19.454Z,13.20
2022-09-21T21:32:15.972Z,13.20
2022-09-21T21:33:15.952Z,13.18
2022-09-21T21:34:16.156Z,13.20
2022-09-21T21:35:18.591Z,13.20
2022-09-21T21:36:18.589Z,13.16
2022-09-21T21:37:15.975Z,13.28
2022-09-21T21:38:15.989Z,13.22
2022-09-21T21:39:15.995Z,13.09
2022-09-21T21:40:19.660Z,13.19
2022-09-21T21:41:16.002Z,13.09
2022-09-21T21:42:16.026Z,13.12
2022-09-21T23:44:21.784Z,11.90
2022-09-21T23:45:21.767Z,11.69
